Latest Weather Observations for Yanakie

IDV60801

Issued at 9:22 pm EST Thursday 20 June 2019 (issued every 10 minutes, with the page automatically refreshed every 10 minutes)

About weather observations | Map of weather stations | Latest weather observations for VIC | Other Formats
Station Details ID: 085301 Name: YANAKIE Lat: -38.81 Lon: 146.19 Height: 13.3 m
Data from the previous 72 hours. | See also: Recent months at Yanakie
Date/Time
EST
Temp
°C
App
Temp
°C
Dew
Point
°C
Rel
Hum
%
Delta-T
°C
Wind Press
QNH
hPa
Press
MSL
hPa
Rain since
9am
mm
Dir  Spd
km/h
Gust
km/h
Spd
kts
Gust
kts
20/09:00pm 9.6 6.3 8.0 90 0.8 SW 15 19 8 10 1024.8 1024.8 0.0
20/08:30pm 9.5 5.8 8.1 91 0.7 SW 17 22 9 12 1024.7 1024.7 0.0
20/08:00pm 9.5 6.2 7.9 90 0.8 SW 15 24 8 13 1024.7 1024.7 0.0
20/07:30pm 9.3 6.0 8.2 93 0.5 SW 15 19 8 10 1024.7 1024.7 0.0
20/07:00pm 9.1 5.0 7.7 91 0.7 SW 19 24 10 13 1024.3 1024.3 0.0
20/06:30pm 9.3 5.6 7.9 91 0.7 SW 17 22 9 12 1024.1 1024.1 0.0
20/06:00pm 9.2 5.5 7.8 91 0.7 SW 17 20 9 11 1023.9 1023.9 0.0
20/05:30pm 9.3 5.6 7.9 91 0.7 SW 17 20 9 11 1023.7 1023.7 0.0
20/05:00pm 9.2 5.5 7.8 91 0.7 SW 17 20 9 11 1023.6 1023.6 0.0
20/04:30pm 9.5 5.7 7.6 88 0.9 SSW 17 24 9 13 1023.5 1023.5 0.0
20/04:00pm 10.7 6.8 8.5 86 1.1 SW 19 24 10 13 1023.5 1023.5 0.0
20/03:30pm 10.6 6.3 8.0 84 1.3 SW 20 26 11 14 1023.4 1023.4 0.0
20/03:00pm 11.2 7.2 8.2 82 1.5 SW 19 26 10 14 1023.4 1023.4 0.0
20/02:30pm 11.6 7.5 7.7 77 1.9 WSW 19 24 10 13 1023.3 1023.3 0.0
20/02:00pm 11.6 7.5 7.7 77 1.9 SW 19 24 10 13 1023.3 1023.3 0.0
20/01:30pm 11.5 8.0 8.7 83 1.4 WSW 17 22 9 12 1023.5 1023.5 0.0
20/01:00pm 11.8 8.1 9.5 86 1.2 W 19 26 10 14 1023.8 1023.8 0.0
20/12:30pm 11.7 9.0 10.3 91 0.7 WNW 15 20 8 11 1024.1 1024.1 0.0
20/12:00pm 10.9 7.7 10.1 95 0.4 WNW 17 22 9 12 1024.5 1024.5 0.0
20/11:30am 10.9 8.3 10.7 99 0.1 WNW 15 20 8 11 1025.0 1025.0 0.0
20/11:00am 10.1 6.6 10.1 100 0.0 NW 19 24 10 13 1025.2 1025.2 0.0
20/10:30am 9.8 6.2 9.8 100 0.0 NW 19 22 10 12 1025.3 1025.3 0.0
20/10:00am 9.3 5.9 9.3 100 0.0 NW 17 22 9 12 1025.3 1025.3 0.0
20/09:30am 8.6 5.4 8.6 100 0.0 NW 15 22 8 12 1025.1 1025.1 0.0
20/09:00am 7.9 4.9 7.9 100 0.0 NW 13 19 7 10 1025.1 1025.1 5.6
20/08:30am 7.1 4.7 7.1 100 0.0 NW 9 13 5 7 1025.2 1025.2 5.6
20/08:00am 6.1 3.1 6.1 100 0.0 NW 11 13 6 7 1025.1 1025.1 5.6
20/07:30am 6.2 3.6 6.2 100 0.0 NW 9 13 5 7 1025.0 1025.0 5.6
20/07:00am 6.5 3.6 6.5 100 0.0 NW 11 15 6 8 1024.9 1024.9 5.6
20/06:30am 6.7 3.5 6.7 100 0.0 NW 13 17 7 9 1024.9 1024.9 5.6
20/06:00am 7.2 4.1 7.2 100 0.0 WNW 13 19 7 10 1024.7 1024.7 5.6
20/05:30am 7.3 5.0 7.3 100 0.0 NW 9 11 5 6 1024.7 1024.7 5.6
20/05:00am 7.1 4.3 7.1 100 0.0 NW 11 13 6 7 1024.4 1024.4 5.6
20/04:30am 7.3 3.8 7.3 100 0.0 WNW 15 19 8 10 1024.4 1024.4 5.4
20/04:00am 7.1 4.0 7.1 100 0.0 NW 13 17 7 9 1024.4 1024.4 5.4
20/03:30am 7.6 5.0 7.6 100 0.0 WNW 11 13 6 7 1024.6 1024.6 5.4
20/03:00am 7.5 5.2 7.5 100 0.0 NW 9 11 5 6 1024.9 1024.9 5.4
20/02:30am 7.7 4.7 7.7 100 0.0 WNW 13 17 7 9 1025.0 1025.0 5.4
20/02:00am 7.8 4.8 7.8 100 0.0 WNW 13 17 7 9 1025.1 1025.1 5.2
20/01:30am 7.7 5.8 7.7 100 0.0 WNW 7 9 4 5 1025.1 1025.1 5.2
20/01:00am 7.9 5.7 7.9 100 0.0 WNW 9 13 5 7 1025.1 1025.1 5.2
20/12:30am 8.0 5.8 8.0 100 0.0 WNW 9 15 5 8 1025.1 1025.1 5.2
20/12:00am 7.8 6.2 7.8 100 0.0 N 6 9 3 5 1025.3 1025.3 5.2
 
Date/Time
EST
Temp
°C
App
Temp
°C
Dew
Point
°C
Rel
Hum
%
Delta-T
°C
Wind Press
QNH
hPa
Press
MSL
hPa
Rain since
9am
mm
Dir  Spd
km/h
Gust
km/h
Spd
kts
Gust
kts
19/11:30pm 7.8 6.2 7.8 100 0.0 NNE 6 9 3 5 1025.4 1025.4 5.2
19/11:00pm 8.2 5.7 8.2 100 0.0 WNW 11 13 6 7 1025.3 1025.3 3.6
19/10:30pm 8.0 5.5 8.0 100 0.0 NW 11 15 6 8 1025.4 1025.4 1.0
19/10:00pm 9.4 6.8 9.3 99 0.0 W 13 24 7 13 1025.4 1025.4 1.0
19/09:30pm 8.8 6.4 8.8 100 0.0 SSW 11 17 6 9 1025.4 1025.4 1.0
19/09:00pm 8.1 6.9 8.1 100 0.0 NNW 4 6 2 3 1025.3 1025.3 1.0
19/08:30pm 7.9 6.1 7.9 100 0.0 W 7 13 4 7 1025.4 1025.4 1.0
19/08:00pm 7.9 5.3 7.9 100 0.0 WNW 11 13 6 7 1025.4 1025.4 1.0
19/07:30pm 6.9 4.5 6.9 100 0.0 WNW 9 11 5 6 1025.4 1025.4 0.6
19/07:00pm 8.1 6.0 8.1 100 0.0 W 9 13 5 7 1025.4 1025.4 0.6
19/06:30pm 7.2 4.8 7.1 99 0.0 WNW 9 11 5 6 1025.3 1025.3 0.6
19/06:00pm 8.6 6.2 8.5 99 0.0 WSW 11 17 6 9 1025.3 1025.3 0.6
19/05:30pm 8.8 6.1 7.3 90 0.7 WSW 11 15 6 8 1025.1 1025.1 0.0
19/05:00pm 9.4 5.2 7.5 88 0.9 SSW 19 32 10 17 1024.9 1024.9 0.0
19/04:30pm 10.2 6.9 8.0 86 1.1 WSW 15 20 8 11 1024.7 1024.7 0.0
19/04:00pm 10.2 5.7 7.1 81 1.5 WSW 20 26 11 14 1024.7 1024.7 0.0
19/03:30pm 10.8 7.3 7.3 79 1.7 SW 15 20 8 11 1024.6 1024.6 0.0
19/03:00pm 10.8 4.7 8.4 85 1.2 SW 30 35 16 19 1024.6 1024.6 0.0
19/02:30pm 11.2 7.2 8.1 81 1.5 SW 19 28 10 15 1024.3 1024.3 0.0
19/02:00pm 11.5 7.1 7.4 76 2.0 SW 20 28 11 15 1024.2 1024.2 0.0
19/01:30pm 11.4 6.1 6.9 74 2.1 SW 24 32 13 17 1024.2 1024.2 0.0
19/01:00pm 11.9 7.4 8.7 81 1.6 WSW 22 30 12 16 1024.2 1024.2 0.0
19/12:30pm 11.1 6.3 8.7 85 1.2 WSW 24 30 13 16 1024.4 1024.4 0.0
19/12:00pm 11.0 5.3 6.9 76 1.9 WSW 26 37 14 20 1024.5 1024.5 0.0
19/11:30am 10.8 5.6 7.1 78 1.8 SW 24 32 13 17 1024.8 1024.8 0.0
19/11:00am 10.7 6.1 8.3 85 1.2 SW 22 35 12 19 1024.8 1024.8 0.0
19/10:30am 9.9 4.2 8.2 89 0.8 WSW 28 41 15 22 1024.9 1024.9 0.0
19/10:00am 9.5 5.2 7.1 85 1.1 SW 19 24 10 13 1024.5 1024.5 0.0
19/09:30am 8.7 5.9 8.6 99 0.0 W 13 17 7 9 1024.3 1024.3 0.0
19/09:00am 8.5 4.0 8.5 100 0.0 W 22 33 12 18 1023.9 1023.9 9.4
19/08:30am 7.8 4.1 7.8 100 0.0 WNW 17 24 9 13 1023.5 1023.5 8.8
19/08:00am 7.3 3.4 7.3 100 0.0 NW 17 26 9 14 1023.4 1023.4 8.4
19/07:30am 7.4 5.1 7.4 100 0.0 W 9 15 5 8 1023.3 1023.3 7.8
19/07:00am 7.2 4.5 7.2 100 0.0 WNW 11 17 6 9 1022.7 1022.7 7.6
19/06:30am 7.9 4.9 7.9 100 0.0 SW 13 20 7 11 1022.4 1022.4 7.6
19/06:00am 7.8 5.2 7.8 100 0.0 WNW 11 19 6 10 1021.9 1021.9 7.6
19/05:30am 7.9 4.5 7.8 99 0.0 WSW 15 19 8 10 1021.6 1021.6 7.6
19/05:13am 8.1 2.3 8.1 100 0.0 WSW 28 48 15 26 1021.7 1021.7 7.4
19/05:00am 8.4 3.5 8.4 100 0.0 WSW 24 35 13 19 1021.4 1021.4 7.2
19/04:30am 7.9 3.8 7.9 100 0.0 W 19 24 10 13 1021.3 1021.3 6.8
19/04:00am 8.1 3.1 8.1 100 0.0 W 24 37 13 20 1021.2 1021.2 6.6
19/03:30am 7.5 3.7 7.4 99 0.0 WNW 17 26 9 14 1021.2 1021.2 6.6
19/03:00am 7.7 3.8 7.1 96 0.3 WNW 17 20 9 11 1021.1 1021.1 6.6
19/02:30am 7.9 2.8 7.8 99 0.0 W 24 33 13 18 1021.1 1021.1 6.6
19/02:00am 8.0 3.7 7.7 98 0.1 W 20 28 11 15 1020.9 1020.9 6.6
19/01:30am 9.3 5.2 8.5 95 0.4 WSW 20 30 11 16 1020.8 1020.8 6.6
19/01:00am 8.7 4.5 8.4 98 0.1 SW 20 32 11 17 1020.8 1020.8 6.6
19/12:32am 8.3 2.3 7.1 92 0.6 SW 28 48 15 26 1021.0 1021.0 6.4
19/12:30am 9.1 3.7 7.9 92 0.6 SW 26 39 14 21 1020.9 1020.9 6.4
19/12:00am 9.2 4.3 6.8 85 1.1 WSW 22 32 12 17 1020.6 1020.6 6.4
 
Date/Time
EST
Temp
°C
App
Temp
°C
Dew
Point
°C
Rel
Hum
%
Delta-T
°C
Wind Press
QNH
hPa
Press
MSL
hPa
Rain since
9am
mm
Dir  Spd
km/h
Gust
km/h
Spd
kts
Gust
kts
18/11:30pm 9.1 3.6 7.5 90 0.8 WSW 26 35 14 19 1020.6 1020.6 6.4
18/11:00pm 8.9 2.5 8.6 98 0.1 SW 32 43 17 23 1020.5 1020.5 6.4
18/10:30pm 8.7 4.1 8.1 96 0.3 W 22 32 12 17 1020.1 1020.1 5.2
18/10:00pm 7.3 4.9 7.2 99 0.0 W 9 15 5 8 1020.1 1020.1 5.2
18/09:30pm 6.7 4.1 6.3 97 0.2 WNW 9 13 5 7 1019.9 1019.9 5.2
18/09:00pm 7.2 5.1 6.8 97 0.2 W 7 13 4 7 1019.6 1019.6 5.2
18/08:30pm 8.8 4.6 7.4 91 0.7 WSW 19 26 10 14 1019.5 1019.5 5.2
18/08:00pm 7.9 4.6 7.9 100 0.0 NW 15 24 8 13 1019.3 1019.3 5.2
18/07:30pm 8.2 5.2 7.6 96 0.3 WNW 13 22 7 12 1019.0 1019.0 5.2
18/07:00pm 8.1 4.4 8.1 100 0.0 NW 17 26 9 14 1018.8 1018.8 5.2
18/06:30pm 8.8 5.1 8.0 95 0.4 WNW 17 20 9 11 1018.4 1018.4 5.2
18/06:00pm 10.0 5.5 10.0 100 0.0 SW 24 35 13 19 1018.0 1018.0 5.2
18/05:30pm 8.4 4.4 8.4 100 0.0 NW 19 24 10 13 1017.8 1017.8 5.2
18/05:00pm 8.4 4.8 8.4 100 0.0 NW 17 24 9 13 1017.3 1017.3 5.2
18/04:30pm 8.4 3.9 8.4 100 0.0 W 22 37 12 20 1017.0 1017.0 5.2
18/04:00pm 9.5 5.2 9.5 100 0.0 W 22 33 12 18 1016.8 1016.8 2.6
18/03:30pm 10.7 7.3 10.7 100 0.0 W 19 24 10 13 1015.7 1015.7 0.8
18/03:00pm 10.7 7.7 10.7 100 0.0 WSW 17 24 9 13 1015.4 1015.4 0.8
18/02:30pm 10.2 6.5 10.2 100 0.0 W 20 24 11 13 1015.2 1015.2 0.8
18/02:00pm 10.6 5.1 10.6 100 0.0 NW 30 43 16 23 1014.8 1014.8 0.2
18/01:30pm 12.4 6.9 10.5 88 1.0 NW 30 41 16 22 1014.7 1014.7 0.0
18/01:00pm 12.6 7.9 10.7 88 1.0 NW 26 39 14 21 1014.9 1014.9 0.0
18/12:30pm 11.9 6.7 10.1 89 0.9 NW 28 41 15 22 1015.2 1015.2 0.0
18/12:00pm 11.6 6.1 10.7 94 0.5 NW 30 41 16 22 1015.5 1015.5 0.0
18/11:30am 11.4 6.0 10.8 96 0.3 NW 30 43 16 23 1015.3 1015.3 0.0
18/11:00am 11.9 6.7 10.3 90 0.8 NW 28 39 15 21 1015.8 1015.8 0.0
18/10:30am 12.5 6.9 10.0 85 1.3 NW 30 41 16 22 1015.8 1015.8 0.0
18/10:29am 12.4 6.8 10.0 85 1.2 NW 30 41 16 22 1015.7 1015.7 0.0
18/10:00am 12.5 9.7 9.9 84 1.3 NW 15 20 8 11 1015.8 1015.8 0.0
18/09:30am 12.6 8.4 9.8 83 1.4 NNW 22 33 12 18 1015.5 1015.5 0.0
18/09:00am 12.0 8.3 9.6 85 1.2 N 19 24 10 13 1015.4 1015.4 0.0
18/08:30am 11.1 8.4 9.0 87 1.0 N 13 22 7 12 1015.4 1015.4 0.0
18/08:00am 11.2 8.1 8.9 86 1.1 N 15 22 8 12 1015.3 1015.3 0.0
18/07:30am 11.3 7.3 8.9 85 1.2 N 20 35 11 19 1015.4 1015.4 0.0
18/07:00am 11.0 7.5 8.9 87 1.0 NNW 17 24 9 13 1015.7 1015.7 0.0
18/06:30am 10.5 8.6 8.9 90 0.8 NNW 9 17 5 9 1015.9 1015.9 0.0
18/06:00am 10.2 7.7 8.0 86 1.1 N 11 15 6 8 1015.8 1015.8 0.0
18/05:30am 10.1 7.5 7.9 86 1.1 N 11 13 6 7 1015.6 1015.6 0.0
18/05:00am 9.8 7.1 7.4 85 1.1 N 11 15 6 8 1015.9 1015.9 0.0
18/04:30am 9.6 6.9 7.5 87 1.0 N 11 13 6 7 1016.0 1016.0 0.0
18/04:00am 10.1 7.1 7.7 85 1.1 N 13 19 7 10 1016.1 1016.1 0.0
18/03:30am 9.6 7.4 7.9 89 0.8 N 9 13 5 7 1016.6 1016.6 0.0
18/03:00am 9.6 7.7 9.1 97 0.2 NNE 9 13 5 7 1016.8 1016.8 0.0
18/02:30am 8.5 6.7 8.1 97 0.2 NE 7 9 4 5 1017.2 1017.2 0.0
18/02:00am 9.1 7.4 8.3 95 0.4 NE 7 9 4 5 1017.5 1017.5 0.0
18/01:30am 9.7 7.8 8.9 95 0.4 NNE 9 13 5 7 1017.7 1017.7 0.0
18/01:00am 9.8 7.9 9.2 96 0.3 NNE 9 11 5 6 1018.0 1018.0 0.0
18/12:30am 9.9 8.4 9.3 96 0.3 N 7 13 4 7 1018.1 1018.1 0.0
18/12:00am 9.3 7.4 9.0 98 0.1 NNE 9 13 5 7 1018.4 1018.4 0.0
 
Date/Time
EST
Temp
°C
App
Temp
°C
Dew
Point
°C
Rel
Hum
%
Delta-T
°C
Wind Press
QNH
hPa
Press
MSL
hPa
Rain since
9am
mm
Dir  Spd
km/h
Gust
km/h
Spd
kts
Gust
kts
17/11:30pm 8.9 7.2 8.5 97 0.2 NNE 7 11 4 6 1018.8 1018.8 0.0
17/11:00pm 9.4 8.0 9.4 100 0.0 N 7 13 4 7 1019.1 1019.1 0.0
17/10:30pm 9.3 7.8 9.3 100 0.0 NNE 7 13 4 7 1019.3 1019.3 0.0
17/10:00pm 9.7 8.3 9.7 100 0.0 N 7 9 4 5 1019.5 1019.5 0.0
17/09:30pm 9.7 8.3 9.7 100 0.0 N 7 9 4 5 1019.8 1019.8 0.0

Other formats

Comma delimited format used in spreadsheet applications
http://www.bom.gov.au/fwo/IDV60801/IDV60801.94911.axf

JavaScript Object Notation format (JSON) in row-major order
http://www.bom.gov.au/fwo/IDV60801/IDV60801.94911.json

Data quality

Most of these data are generated automatically and are frequently updated. Quality checks on data are not normally performed. It is possible for incorrect values to appear. Refer to information at About Latest Weather Observations and please check the disclaimer before using these data.